sensor_id;sensor_type;location;lat;lon;timestamp;P1;durP1;ratioP1;P2;durP2;ratioP2
26277;SDS011;14000;52.056;8.510;2023-02-20T00:01:14;19.57;;;11.37;;
26277;SDS011;14000;52.056;8.510;2023-02-20T00:03:40;21.60;;;12.03;;
26277;SDS011;14000;52.056;8.510;2023-02-20T00:06:06;21.43;;;13.10;;
26277;SDS011;14000;52.056;8.510;2023-02-20T00:08:31;22.37;;;12.83;;
26277;SDS011;14000;52.056;8.510;2023-02-20T00:10:57;21.83;;;13.47;;
26277;SDS011;14000;52.056;8.510;2023-02-20T00:13:22;23.70;;;14.40;;
26277;SDS011;14000;52.056;8.510;2023-02-20T00:15:48;25.87;;;15.80;;
26277;SDS011;14000;52.056;8.510;2023-02-20T00:18:14;23.83;;;15.03;;
26277;SDS011;14000;52.056;8.510;2023-02-20T00:20:39;25.80;;;16.73;;
26277;SDS011;14000;52.056;8.510;2023-02-20T00:23:05;25.40;;;16.27;;
26277;SDS011;14000;52.056;8.510;2023-02-20T00:25:30;27.57;;;17.13;;
26277;SDS011;14000;52.056;8.510;2023-02-20T00:27:56;27.40;;;17.47;;
26277;SDS011;14000;52.056;8.510;2023-02-20T00:30:22;30.47;;;18.33;;
26277;SDS011;14000;52.056;8.510;2023-02-20T00:32:50;29.90;;;19.27;;
26277;SDS011;14000;52.056;8.510;2023-02-20T00:35:16;29.33;;;18.27;;
26277;SDS011;14000;52.056;8.510;2023-02-20T00:37:43;28.73;;;18.10;;
26277;SDS011;14000;52.056;8.510;2023-02-20T00:40:12;33.40;;;19.07;;
26277;SDS011;14000;52.056;8.510;2023-02-20T00:42:39;28.53;;;17.17;;
26277;SDS011;14000;52.056;8.510;2023-02-20T00:45:04;29.90;;;17.33;;
26277;SDS011;14000;52.056;8.510;2023-02-20T00:47:31;25.80;;;15.73;;
26277;SDS011;14000;52.056;8.510;2023-02-20T00:49:57;27.20;;;15.97;;
26277;SDS011;14000;52.056;8.510;2023-02-20T00:52:23;30.47;;;18.23;;
26277;SDS011;14000;52.056;8.510;2023-02-20T00:54:48;28.20;;;16.43;;
26277;SDS011;14000;52.056;8.510;2023-02-20T00:57:14;29.73;;;17.40;;
26277;SDS011;14000;52.056;8.510;2023-02-20T00:59:40;25.57;;;15.17;;
26277;SDS011;14000;52.056;8.510;2023-02-20T01:02:05;28.40;;;16.07;;
26277;SDS011;14000;52.056;8.510;2023-02-20T01:04:31;27.77;;;16.20;;
26277;SDS011;14000;52.056;8.510;2023-02-20T01:06:56;27.33;;;15.67;;
26277;SDS011;14000;52.056;8.510;2023-02-20T01:09:22;29.97;;;17.00;;
26277;SDS011;14000;52.056;8.510;2023-02-20T01:11:48;29.53;;;17.40;;
26277;SDS011;14000;52.056;8.510;2023-02-20T01:14:14;30.33;;;17.03;;
26277;SDS011;14000;52.056;8.510;2023-02-20T01:16:43;31.47;;;18.10;;
26277;SDS011;14000;52.056;8.510;2023-02-20T01:19:10;31.07;;;17.70;;
26277;SDS011;14000;52.056;8.510;2023-02-20T01:21:35;30.63;;;17.97;;
26277;SDS011;14000;52.056;8.510;2023-02-20T01:24:01;29.97;;;16.47;;
26277;SDS011;14000;52.056;8.510;2023-02-20T01:26:26;30.37;;;16.90;;
26277;SDS011;14000;52.056;8.510;2023-02-20T01:28:52;28.83;;;16.43;;
26277;SDS011;14000;52.056;8.510;2023-02-20T01:31:17;27.13;;;15.30;;
26277;SDS011;14000;52.056;8.510;2023-02-20T01:33:43;30.33;;;16.23;;
26277;SDS011;14000;52.056;8.510;2023-02-20T01:36:09;26.90;;;16.03;;
26277;SDS011;14000;52.056;8.510;2023-02-20T01:38:34;25.60;;;14.37;;
26277;SDS011;14000;52.056;8.510;2023-02-20T01:41:00;25.90;;;15.00;;
26277;SDS011;14000;52.056;8.510;2023-02-20T01:43:26;25.43;;;13.87;;
26277;SDS011;14000;52.056;8.510;2023-02-20T01:45:51;27.03;;;14.93;;
26277;SDS011;14000;52.056;8.510;2023-02-20T01:48:22;24.30;;;14.47;;
26277;SDS011;14000;52.056;8.510;2023-02-20T01:50:53;27.13;;;14.47;;
26277;SDS011;14000;52.056;8.510;2023-02-20T01:53:23;25.00;;;14.40;;
26277;SDS011;14000;52.056;8.510;2023-02-20T01:55:54;24.90;;;14.10;;
26277;SDS011;14000;52.056;8.510;2023-02-20T01:58:24;25.03;;;14.27;;
26277;SDS011;14000;52.056;8.510;2023-02-20T02:00:55;26.13;;;15.13;;
26277;SDS011;14000;52.056;8.510;2023-02-20T02:03:23;25.40;;;14.37;;
26277;SDS011;14000;52.056;8.510;2023-02-20T02:05:54;26.87;;;15.53;;
26277;SDS011;14000;52.056;8.510;2023-02-20T02:08:24;27.03;;;15.70;;
26277;SDS011;14000;52.056;8.510;2023-02-20T02:13:26;29.70;;;16.47;;
26277;SDS011;14000;52.056;8.510;2023-02-20T02:15:52;33.27;;;18.20;;
26277;SDS011;14000;52.056;8.510;2023-02-20T02:18:37;34.40;;;18.10;;
26277;SDS011;14000;52.056;8.510;2023-02-20T02:24:04;35.10;;;21.00;;
26277;SDS011;14000;52.056;8.510;2023-02-20T02:42:57;43.93;;;19.90;;
26277;SDS011;14000;52.056;8.510;2023-02-20T02:45:34;33.70;;;19.27;;
26277;SDS011;14000;52.056;8.510;2023-02-20T02:50:44;37.90;;;20.17;;
26277;SDS011;14000;52.056;8.510;2023-02-20T02:53:13;38.23;;;19.73;;
26277;SDS011;14000;52.056;8.510;2023-02-20T02:55:39;37.37;;;18.73;;
26277;SDS011;14000;52.056;8.510;2023-02-20T02:58:05;37.33;;;18.67;;
26277;SDS011;14000;52.056;8.510;2023-02-20T03:03:12;34.73;;;17.47;;
26277;SDS011;14000;52.056;8.510;2023-02-20T03:05:49;32.17;;;16.33;;
26277;SDS011;14000;52.056;8.510;2023-02-20T03:08:32;33.00;;;16.57;;
26277;SDS011;14000;52.056;8.510;2023-02-20T03:11:25;35.80;;;16.97;;
26277;SDS011;14000;52.056;8.510;2023-02-20T03:13:58;33.47;;;17.20;;
26277;SDS011;14000;52.056;8.510;2023-02-20T03:19:29;32.13;;;16.17;;
26277;SDS011;14000;52.056;8.510;2023-02-20T03:22:15;34.77;;;17.87;;
26277;SDS011;14000;52.056;8.510;2023-02-20T03:24:52;36.07;;;17.00;;
26277;SDS011;14000;52.056;8.510;2023-02-20T03:27:32;33.17;;;15.97;;
26277;SDS011;14000;52.056;8.510;2023-02-20T03:30:26;35.23;;;16.20;;
26277;SDS011;14000;52.056;8.510;2023-02-20T03:35:58;37.00;;;18.00;;
26277;SDS011;14000;52.056;8.510;2023-02-20T03:38:46;35.97;;;17.30;;
26277;SDS011;14000;52.056;8.510;2023-02-20T03:41:35;34.30;;;17.23;;
26277;SDS011;14000;52.056;8.510;2023-02-20T03:44:22;41.30;;;18.53;;
26277;SDS011;14000;52.056;8.510;2023-02-20T03:46:49;36.67;;;16.73;;
26277;SDS011;14000;52.056;8.510;2023-02-20T03:49:19;34.73;;;17.37;;
26277;SDS011;14000;52.056;8.510;2023-02-20T03:51:47;34.90;;;16.83;;
26277;SDS011;14000;52.056;8.510;2023-02-20T03:54:13;37.03;;;16.23;;
26277;SDS011;14000;52.056;8.510;2023-02-20T03:56:45;36.23;;;17.20;;
26277;SDS011;14000;52.056;8.510;2023-02-20T04:01:47;35.73;;;17.60;;
26277;SDS011;14000;52.056;8.510;2023-02-20T04:04:19;38.90;;;17.47;;
26277;SDS011;14000;52.056;8.510;2023-02-20T04:06:50;37.77;;;16.53;;
26277;SDS011;14000;52.056;8.510;2023-02-20T04:09:25;35.43;;;16.97;;
26277;SDS011;14000;52.056;8.510;2023-02-20T04:11:59;35.37;;;15.97;;
26277;SDS011;14000;52.056;8.510;2023-02-20T04:14:31;39.63;;;16.60;;
26277;SDS011;14000;52.056;8.510;2023-02-20T04:16:59;40.47;;;17.10;;
26277;SDS011;14000;52.056;8.510;2023-02-20T04:19:29;35.77;;;16.63;;
26277;SDS011;14000;52.056;8.510;2023-02-20T04:21:55;38.67;;;18.20;;
26277;SDS011;14000;52.056;8.510;2023-02-20T04:24:28;41.40;;;18.40;;
26277;SDS011;14000;52.056;8.510;2023-02-20T04:27:07;37.10;;;16.50;;
26277;SDS011;14000;52.056;8.510;2023-02-20T04:29:33;39.53;;;17.30;;
26277;SDS011;14000;52.056;8.510;2023-02-20T04:31:59;37.63;;;16.43;;
26277;SDS011;14000;52.056;8.510;2023-02-20T04:34:25;36.00;;;16.30;;
26277;SDS011;14000;52.056;8.510;2023-02-20T04:36:52;37.73;;;16.70;;
26277;SDS011;14000;52.056;8.510;2023-02-20T04:39:27;36.57;;;16.60;;
26277;SDS011;14000;52.056;8.510;2023-02-20T04:41:53;34.87;;;15.77;;
26277;SDS011;14000;52.056;8.510;2023-02-20T04:44:18;33.60;;;15.97;;
26277;SDS011;14000;52.056;8.510;2023-02-20T04:46:58;33.77;;;15.43;;
26277;SDS011;14000;52.056;8.510;2023-02-20T04:49:24;36.33;;;16.33;;
26277;SDS011;14000;52.056;8.510;2023-02-20T04:51:50;34.67;;;15.63;;
26277;SDS011;14000;52.056;8.510;2023-02-20T04:54:15;34.60;;;16.13;;
26277;SDS011;14000;52.056;8.510;2023-02-20T04:56:41;31.17;;;15.83;;
26277;SDS011;14000;52.056;8.510;2023-02-20T04:59:07;33.30;;;15.60;;
26277;SDS011;14000;52.056;8.510;2023-02-20T05:01:32;36.20;;;15.47;;
26277;SDS011;14000;52.056;8.510;2023-02-20T05:03:58;32.30;;;14.93;;
26277;SDS011;14000;52.056;8.510;2023-02-20T05:06:23;36.93;;;15.60;;
26277;SDS011;14000;52.056;8.510;2023-02-20T05:08:49;33.83;;;14.77;;
26277;SDS011;14000;52.056;8.510;2023-02-20T05:11:15;29.47;;;13.90;;
26277;SDS011;14000;52.056;8.510;2023-02-20T05:13:41;32.60;;;14.33;;
26277;SDS011;14000;52.056;8.510;2023-02-20T05:16:07;33.93;;;14.87;;
26277;SDS011;14000;52.056;8.510;2023-02-20T05:18:33;34.43;;;14.33;;
26277;SDS011;14000;52.056;8.510;2023-02-20T05:20:58;33.47;;;14.27;;
26277;SDS011;14000;52.056;8.510;2023-02-20T05:23:44;30.13;;;14.07;;
26277;SDS011;14000;52.056;8.510;2023-02-20T05:26:11;29.33;;;14.27;;
26277;SDS011;14000;52.056;8.510;2023-02-20T05:28:40;34.70;;;14.57;;
26277;SDS011;14000;52.056;8.510;2023-02-20T05:31:06;33.83;;;14.47;;
26277;SDS011;14000;52.056;8.510;2023-02-20T05:33:31;35.27;;;15.13;;
26277;SDS011;14000;52.056;8.510;2023-02-20T05:35:57;32.27;;;13.33;;
26277;SDS011;14000;52.056;8.510;2023-02-20T05:38:23;33.20;;;13.67;;
26277;SDS011;14000;52.056;8.510;2023-02-20T05:40:49;29.30;;;14.03;;
26277;SDS011;14000;52.056;8.510;2023-02-20T05:43:17;28.00;;;13.47;;
26277;SDS011;14000;52.056;8.510;2023-02-20T05:45:43;29.97;;;14.13;;
26277;SDS011;14000;52.056;8.510;2023-02-20T05:48:11;33.00;;;15.27;;
26277;SDS011;14000;52.056;8.510;2023-02-20T05:50:37;35.27;;;14.67;;
26277;SDS011;14000;52.056;8.510;2023-02-20T05:53:03;30.43;;;13.83;;
26277;SDS011;14000;52.056;8.510;2023-02-20T05:55:28;36.53;;;15.00;;
26277;SDS011;14000;52.056;8.510;2023-02-20T05:57:55;30.70;;;14.10;;
26277;SDS011;14000;52.056;8.510;2023-02-20T06:00:20;33.67;;;14.83;;
26277;SDS011;14000;52.056;8.510;2023-02-20T06:02:46;32.00;;;15.87;;
26277;SDS011;14000;52.056;8.510;2023-02-20T06:05:12;36.83;;;16.13;;
26277;SDS011;14000;52.056;8.510;2023-02-20T06:07:38;38.27;;;18.97;;
26277;SDS011;14000;52.056;8.510;2023-02-20T06:10:04;36.87;;;18.73;;
26277;SDS011;14000;52.056;8.510;2023-02-20T06:12:30;45.77;;;20.80;;
26277;SDS011;14000;52.056;8.510;2023-02-20T06:14:55;43.23;;;20.60;;
26277;SDS011;14000;52.056;8.510;2023-02-20T06:17:21;41.80;;;21.57;;
26277;SDS011;14000;52.056;8.510;2023-02-20T06:19:48;38.83;;;21.27;;
26277;SDS011;14000;52.056;8.510;2023-02-20T06:22:15;41.27;;;20.83;;
26277;SDS011;14000;52.056;8.510;2023-02-20T06:24:43;41.17;;;20.97;;
26277;SDS011;14000;52.056;8.510;2023-02-20T06:27:10;39.47;;;19.97;;
26277;SDS011;14000;52.056;8.510;2023-02-20T06:29:35;40.47;;;21.83;;
26277;SDS011;14000;52.056;8.510;2023-02-20T06:32:01;46.13;;;25.07;;
26277;SDS011;14000;52.056;8.510;2023-02-20T06:34:26;48.77;;;24.77;;
26277;SDS011;14000;52.056;8.510;2023-02-20T06:36:55;50.53;;;26.30;;
26277;SDS011;14000;52.056;8.510;2023-02-20T06:39:21;46.77;;;26.47;;
26277;SDS011;14000;52.056;8.510;2023-02-20T06:41:46;54.27;;;27.73;;
26277;SDS011;14000;52.056;8.510;2023-02-20T06:44:12;52.10;;;28.70;;
26277;SDS011;14000;52.056;8.510;2023-02-20T06:46:37;57.50;;;28.20;;
26277;SDS011;14000;52.056;8.510;2023-02-20T06:49:03;52.10;;;28.60;;
26277;SDS011;14000;52.056;8.510;2023-02-20T06:51:30;55.53;;;30.60;;
26277;SDS011;14000;52.056;8.510;2023-02-20T06:53:57;55.23;;;31.10;;
26277;SDS011;14000;52.056;8.510;2023-02-20T06:56:25;53.83;;;31.53;;
26277;SDS011;14000;52.056;8.510;2023-02-20T06:58:52;58.40;;;31.97;;
26277;SDS011;14000;52.056;8.510;2023-02-20T07:01:19;60.17;;;32.27;;
26277;SDS011;14000;52.056;8.510;2023-02-20T07:03:46;64.13;;;34.87;;
26277;SDS011;14000;52.056;8.510;2023-02-20T07:06:13;62.50;;;35.17;;
26277;SDS011;14000;52.056;8.510;2023-02-20T07:08:39;61.73;;;35.43;;
26277;SDS011;14000;52.056;8.510;2023-02-20T07:11:05;63.20;;;36.70;;
26277;SDS011;14000;52.056;8.510;2023-02-20T07:13:30;65.73;;;36.87;;
26277;SDS011;14000;52.056;8.510;2023-02-20T07:15:56;67.27;;;36.90;;
26277;SDS011;14000;52.056;8.510;2023-02-20T07:18:22;64.70;;;36.03;;
26277;SDS011;14000;52.056;8.510;2023-02-20T07:20:51;61.43;;;36.07;;
26277;SDS011;14000;52.056;8.510;2023-02-20T07:23:19;63.80;;;36.30;;
26277;SDS011;14000;52.056;8.510;2023-02-20T07:25:46;64.70;;;38.50;;
26277;SDS011;14000;52.056;8.510;2023-02-20T07:28:12;65.90;;;38.30;;
26277;SDS011;14000;52.056;8.510;2023-02-20T07:30:38;66.17;;;37.70;;
26277;SDS011;14000;52.056;8.510;2023-02-20T07:33:03;64.47;;;36.03;;
26277;SDS011;14000;52.056;8.510;2023-02-20T07:35:29;59.93;;;36.07;;
26277;SDS011;14000;52.056;8.510;2023-02-20T07:37:54;64.90;;;38.03;;
26277;SDS011;14000;52.056;8.510;2023-02-20T07:40:20;58.50;;;35.63;;
26277;SDS011;14000;52.056;8.510;2023-02-20T07:42:46;59.83;;;34.33;;
26277;SDS011;14000;52.056;8.510;2023-02-20T07:45:12;61.90;;;34.27;;
26277;SDS011;14000;52.056;8.510;2023-02-20T07:47:38;60.10;;;32.53;;
26277;SDS011;14000;52.056;8.510;2023-02-20T07:50:03;60.80;;;32.30;;
26277;SDS011;14000;52.056;8.510;2023-02-20T07:52:29;53.60;;;30.43;;
26277;SDS011;14000;52.056;8.510;2023-02-20T07:54:55;54.73;;;31.00;;
26277;SDS011;14000;52.056;8.510;2023-02-20T07:57:20;54.07;;;30.47;;
26277;SDS011;14000;52.056;8.510;2023-02-20T07:59:46;54.03;;;29.80;;
26277;SDS011;14000;52.056;8.510;2023-02-20T08:02:12;53.07;;;29.07;;
26277;SDS011;14000;52.056;8.510;2023-02-20T08:04:37;49.57;;;27.93;;
26277;SDS011;14000;52.056;8.510;2023-02-20T08:07:03;49.20;;;28.40;;
26277;SDS011;14000;52.056;8.510;2023-02-20T08:09:30;48.97;;;28.10;;
26277;SDS011;14000;52.056;8.510;2023-02-20T08:11:56;49.10;;;28.00;;
26277;SDS011;14000;52.056;8.510;2023-02-20T08:14:22;40.83;;;25.33;;
26277;SDS011;14000;52.056;8.510;2023-02-20T08:16:48;46.27;;;25.93;;
26277;SDS011;14000;52.056;8.510;2023-02-20T08:19:14;43.10;;;25.20;;
26277;SDS011;14000;52.056;8.510;2023-02-20T08:21:39;49.03;;;27.53;;
26277;SDS011;14000;52.056;8.510;2023-02-20T08:24:05;48.90;;;27.87;;
26277;SDS011;14000;52.056;8.510;2023-02-20T08:26:31;59.23;;;29.23;;
26277;SDS011;14000;52.056;8.510;2023-02-20T08:28:58;52.83;;;28.93;;
26277;SDS011;14000;52.056;8.510;2023-02-20T08:31:24;47.90;;;28.63;;
26277;SDS011;14000;52.056;8.510;2023-02-20T08:33:52;48.60;;;29.30;;
26277;SDS011;14000;52.056;8.510;2023-02-20T08:36:18;58.13;;;29.23;;
26277;SDS011;14000;52.056;8.510;2023-02-20T08:38:43;53.83;;;28.80;;
26277;SDS011;14000;52.056;8.510;2023-02-20T08:41:10;49.37;;;28.43;;
26277;SDS011;14000;52.056;8.510;2023-02-20T08:43:37;49.57;;;27.77;;
26277;SDS011;14000;52.056;8.510;2023-02-20T08:46:04;54.50;;;29.77;;
26277;SDS011;14000;52.056;8.510;2023-02-20T08:48:31;51.70;;;29.33;;
26277;SDS011;14000;52.056;8.510;2023-02-20T08:50:57;53.00;;;29.27;;
26277;SDS011;14000;52.056;8.510;2023-02-20T08:53:23;58.00;;;30.33;;
26277;SDS011;14000;52.056;8.510;2023-02-20T08:55:48;55.37;;;30.37;;
26277;SDS011;14000;52.056;8.510;2023-02-20T08:58:17;53.63;;;30.53;;
26277;SDS011;14000;52.056;8.510;2023-02-20T09:00:47;55.30;;;31.13;;
26277;SDS011;14000;52.056;8.510;2023-02-20T09:03:13;54.67;;;30.07;;
26277;SDS011;14000;52.056;8.510;2023-02-20T09:05:38;51.83;;;28.23;;
26277;SDS011;14000;52.056;8.510;2023-02-20T09:08:05;55.13;;;30.67;;
26277;SDS011;14000;52.056;8.510;2023-02-20T09:10:31;55.13;;;29.33;;
26277;SDS011;14000;52.056;8.510;2023-02-20T09:12:56;53.63;;;28.57;;
26277;SDS011;14000;52.056;8.510;2023-02-20T09:15:22;58.67;;;28.43;;
26277;SDS011;14000;52.056;8.510;2023-02-20T09:17:49;49.30;;;26.87;;
26277;SDS011;14000;52.056;8.510;2023-02-20T09:20:16;56.00;;;27.80;;
26277;SDS011;14000;52.056;8.510;2023-02-20T09:22:44;58.33;;;27.73;;
26277;SDS011;14000;52.056;8.510;2023-02-20T09:25:14;53.30;;;28.83;;
26277;SDS011;14000;52.056;8.510;2023-02-20T09:27:40;55.80;;;29.00;;
26277;SDS011;14000;52.056;8.510;2023-02-20T09:30:06;58.47;;;29.27;;
26277;SDS011;14000;52.056;8.510;2023-02-20T09:32:33;59.33;;;30.30;;
26277;SDS011;14000;52.056;8.510;2023-02-20T09:34:58;52.00;;;29.43;;
26277;SDS011;14000;52.056;8.510;2023-02-20T09:37:24;51.27;;;30.03;;
26277;SDS011;14000;52.056;8.510;2023-02-20T09:39:49;50.00;;;29.83;;
26277;SDS011;14000;52.056;8.510;2023-02-20T09:42:18;56.37;;;31.70;;
26277;SDS011;14000;52.056;8.510;2023-02-20T09:45:09;56.10;;;31.77;;
26277;SDS011;14000;52.056;8.510;2023-02-20T09:50:42;61.07;;;33.43;;
26277;SDS011;14000;52.056;8.510;2023-02-20T09:55:37;62.37;;;34.67;;
26277;SDS011;14000;52.056;8.510;2023-02-20T09:58:05;60.50;;;34.43;;
26277;SDS011;14000;52.056;8.510;2023-02-20T10:00:36;62.90;;;34.10;;
26277;SDS011;14000;52.056;8.510;2023-02-20T10:03:14;65.13;;;36.53;;
26277;SDS011;14000;52.056;8.510;2023-02-20T10:05:54;66.93;;;36.13;;
26277;SDS011;14000;52.056;8.510;2023-02-20T10:08:21;68.37;;;36.50;;
26277;SDS011;14000;52.056;8.510;2023-02-20T10:10:48;63.43;;;36.03;;
26277;SDS011;14000;52.056;8.510;2023-02-20T10:13:25;65.33;;;36.17;;
26277;SDS011;14000;52.056;8.510;2023-02-20T10:16:42;70.77;;;37.43;;
26277;SDS011;14000;52.056;8.510;2023-02-20T10:27:21;67.60;;;36.40;;
26277;SDS011;14000;52.056;8.510;2023-02-20T10:29:49;73.67;;;39.07;;
26277;SDS011;14000;52.056;8.510;2023-02-20T10:32:20;72.77;;;38.53;;
26277;SDS011;14000;52.056;8.510;2023-02-20T10:34:57;71.90;;;37.83;;
26277;SDS011;14000;52.056;8.510;2023-02-20T10:37:38;68.90;;;36.87;;
26277;SDS011;14000;52.056;8.510;2023-02-20T10:40:11;74.63;;;39.07;;
26277;SDS011;14000;52.056;8.510;2023-02-20T10:48:30;66.47;;;36.20;;
26277;SDS011;14000;52.056;8.510;2023-02-20T10:53:51;68.27;;;37.97;;
26277;SDS011;14000;52.056;8.510;2023-02-20T10:56:38;69.17;;;37.97;;
26277;SDS011;14000;52.056;8.510;2023-02-20T11:01:45;69.77;;;37.70;;
26277;SDS011;14000;52.056;8.510;2023-02-20T11:04:29;65.60;;;36.70;;
26277;SDS011;14000;52.056;8.510;2023-02-20T11:07:01;66.97;;;36.57;;
26277;SDS011;14000;52.056;8.510;2023-02-20T11:09:31;71.47;;;38.17;;
26277;SDS011;14000;52.056;8.510;2023-02-20T11:11:56;69.43;;;36.17;;
26277;SDS011;14000;52.056;8.510;2023-02-20T11:14:33;68.57;;;36.37;;
26277;SDS011;14000;52.056;8.510;2023-02-20T11:19:44;71.93;;;36.83;;
26277;SDS011;14000;52.056;8.510;2023-02-20T11:22:15;66.20;;;34.53;;
26277;SDS011;14000;52.056;8.510;2023-02-20T11:24:45;62.87;;;34.00;;
26277;SDS011;14000;52.056;8.510;2023-02-20T11:27:18;67.27;;;35.03;;
26277;SDS011;14000;52.056;8.510;2023-02-20T11:29:47;61.30;;;32.93;;
26277;SDS011;14000;52.056;8.510;2023-02-20T11:37:38;61.90;;;32.97;;
26277;SDS011;14000;52.056;8.510;2023-02-20T11:40:04;63.40;;;33.33;;
26277;SDS011;14000;52.056;8.510;2023-02-20T11:42:41;58.90;;;31.17;;
26277;SDS011;14000;52.056;8.510;2023-02-20T11:47:36;56.70;;;30.17;;
26277;SDS011;14000;52.056;8.510;2023-02-20T11:50:10;53.37;;;28.73;;
26277;SDS011;14000;52.056;8.510;2023-02-20T11:52:56;54.77;;;28.43;;
26277;SDS011;14000;52.056;8.510;2023-02-20T11:55:24;53.33;;;28.47;;
26277;SDS011;14000;52.056;8.510;2023-02-20T11:57:51;57.00;;;29.67;;
26277;SDS011;14000;52.056;8.510;2023-02-20T12:00:18;55.80;;;29.07;;
26277;SDS011;14000;52.056;8.510;2023-02-20T12:02:55;52.30;;;25.33;;
26277;SDS011;14000;52.056;8.510;2023-02-20T12:05:42;52.43;;;27.60;;
26277;SDS011;14000;52.056;8.510;2023-02-20T12:10:55;50.50;;;27.40;;
26277;SDS011;14000;52.056;8.510;2023-02-20T12:13:25;56.90;;;28.37;;
26277;SDS011;14000;52.056;8.510;2023-02-20T12:15:57;50.10;;;27.47;;
26277;SDS011;14000;52.056;8.510;2023-02-20T12:18:37;54.70;;;27.03;;
26277;SDS011;14000;52.056;8.510;2023-02-20T12:24:04;51.77;;;26.73;;
26277;SDS011;14000;52.056;8.510;2023-02-20T12:26:41;51.57;;;25.57;;
26277;SDS011;14000;52.056;8.510;2023-02-20T12:31:51;46.10;;;24.97;;
26277;SDS011;14000;52.056;8.510;2023-02-20T12:43:21;50.47;;;26.00;;
26277;SDS011;14000;52.056;8.510;2023-02-20T12:46:05;47.17;;;24.47;;
26277;SDS011;14000;52.056;8.510;2023-02-20T12:51:52;47.30;;;23.53;;
26277;SDS011;14000;52.056;8.510;2023-02-20T12:57:21;42.77;;;22.90;;
26277;SDS011;14000;52.056;8.510;2023-02-20T13:02:48;43.83;;;22.43;;
26277;SDS011;14000;52.056;8.510;2023-02-20T13:05:18;44.40;;;20.77;;
26277;SDS011;14000;52.056;8.510;2023-02-20T13:07:51;48.97;;;22.83;;
26277;SDS011;14000;52.056;8.510;2023-02-20T13:10:22;40.07;;;21.00;;
26277;SDS011;14000;52.056;8.510;2023-02-20T13:12:54;44.17;;;20.67;;
26277;SDS011;14000;52.056;8.510;2023-02-20T13:20:48;43.90;;;21.80;;
26277;SDS011;14000;52.056;8.510;2023-02-20T13:25:47;42.20;;;20.70;;
26277;SDS011;14000;52.056;8.510;2023-02-20T13:33:37;41.13;;;20.67;;
26277;SDS011;14000;52.056;8.510;2023-02-20T13:36:04;42.67;;;20.33;;
26277;SDS011;14000;52.056;8.510;2023-02-20T13:38:38;48.63;;;21.83;;
26277;SDS011;14000;52.056;8.510;2023-02-20T13:41:06;44.07;;;20.37;;
26277;SDS011;14000;52.056;8.510;2023-02-20T13:43:34;38.57;;;20.10;;
26277;SDS011;14000;52.056;8.510;2023-02-20T13:56:18;39.43;;;20.27;;
26277;SDS011;14000;52.056;8.510;2023-02-20T13:58:46;40.73;;;18.80;;
26277;SDS011;14000;52.056;8.510;2023-02-20T14:01:12;40.53;;;20.37;;
26277;SDS011;14000;52.056;8.510;2023-02-20T14:03:38;43.67;;;19.87;;
26277;SDS011;14000;52.056;8.510;2023-02-20T14:08:33;40.43;;;20.33;;
26277;SDS011;14000;52.056;8.510;2023-02-20T14:14:00;44.20;;;19.57;;
26277;SDS011;14000;52.056;8.510;2023-02-20T14:16:35;43.37;;;19.83;;
26277;SDS011;14000;52.056;8.510;2023-02-20T14:21:50;41.27;;;21.83;;
26277;SDS011;14000;52.056;8.510;2023-02-20T14:24:20;42.47;;;20.77;;
26277;SDS011;14000;52.056;8.510;2023-02-20T14:26:51;45.20;;;22.60;;
26277;SDS011;14000;52.056;8.510;2023-02-20T14:31:53;49.13;;;22.53;;
26277;SDS011;14000;52.056;8.510;2023-02-20T14:37:15;40.07;;;21.13;;
26277;SDS011;14000;52.056;8.510;2023-02-20T14:40:00;40.97;;;21.40;;
26277;SDS011;14000;52.056;8.510;2023-02-20T14:42:42;46.90;;;22.07;;
26277;SDS011;14000;52.056;8.510;2023-02-20T14:45:14;47.70;;;22.70;;
26277;SDS011;14000;52.056;8.510;2023-02-20T14:47:56;39.83;;;21.40;;
26277;SDS011;14000;52.056;8.510;2023-02-20T14:50:29;44.30;;;22.70;;
26277;SDS011;14000;52.056;8.510;2023-02-20T14:52:59;46.47;;;22.40;;
26277;SDS011;14000;52.056;8.510;2023-02-20T14:55:27;44.53;;;21.63;;
26277;SDS011;14000;52.056;8.510;2023-02-20T14:57:53;42.30;;;22.27;;
26277;SDS011;14000;52.056;8.510;2023-02-20T15:02:48;43.03;;;22.27;;
26277;SDS011;14000;52.056;8.510;2023-02-20T15:05:19;40.33;;;21.33;;
26277;SDS011;14000;52.056;8.510;2023-02-20T15:07:59;43.93;;;21.40;;
26277;SDS011;14000;52.056;8.510;2023-02-20T15:10:37;44.50;;;20.47;;
26277;SDS011;14000;52.056;8.510;2023-02-20T15:13:08;48.53;;;22.73;;
26277;SDS011;14000;52.056;8.510;2023-02-20T15:15:36;46.60;;;22.40;;
26277;SDS011;14000;52.056;8.510;2023-02-20T15:18:09;42.83;;;21.53;;
26277;SDS011;14000;52.056;8.510;2023-02-20T15:20:44;47.23;;;22.83;;
26277;SDS011;14000;52.056;8.510;2023-02-20T15:23:24;47.13;;;21.77;;
26277;SDS011;14000;52.056;8.510;2023-02-20T15:25:57;48.90;;;21.53;;
26277;SDS011;14000;52.056;8.510;2023-02-20T15:28:24;44.63;;;22.23;;
26277;SDS011;14000;52.056;8.510;2023-02-20T15:33:30;54.40;;;23.83;;
26277;SDS011;14000;52.056;8.510;2023-02-20T15:35:58;47.03;;;22.47;;
26277;SDS011;14000;52.056;8.510;2023-02-20T15:38:33;43.23;;;20.80;;
26277;SDS011;14000;52.056;8.510;2023-02-20T15:41:01;44.50;;;21.00;;
26277;SDS011;14000;52.056;8.510;2023-02-20T15:43:27;45.97;;;20.10;;
26277;SDS011;14000;52.056;8.510;2023-02-20T15:45:53;44.20;;;20.80;;
26277;SDS011;14000;52.056;8.510;2023-02-20T15:48:19;44.37;;;22.07;;
26277;SDS011;14000;52.056;8.510;2023-02-20T15:50:45;51.83;;;23.20;;
26277;SDS011;14000;52.056;8.510;2023-02-20T15:53:22;41.73;;;21.60;;
26277;SDS011;14000;52.056;8.510;2023-02-20T15:55:50;44.37;;;20.53;;
26277;SDS011;14000;52.056;8.510;2023-02-20T15:58:21;43.43;;;21.00;;
26277;SDS011;14000;52.056;8.510;2023-02-20T16:00:49;47.13;;;23.30;;
26277;SDS011;14000;52.056;8.510;2023-02-20T16:03:15;47.93;;;22.10;;
26277;SDS011;14000;52.056;8.510;2023-02-20T16:05:41;48.60;;;23.13;;
26277;SDS011;14000;52.056;8.510;2023-02-20T16:08:07;49.00;;;22.57;;
26277;SDS011;14000;52.056;8.510;2023-02-20T16:10:32;48.30;;;23.30;;
26277;SDS011;14000;52.056;8.510;2023-02-20T16:12:58;44.27;;;21.13;;
26277;SDS011;14000;52.056;8.510;2023-02-20T16:15:25;51.43;;;22.63;;
26277;SDS011;14000;52.056;8.510;2023-02-20T16:17:51;45.33;;;20.70;;
26277;SDS011;14000;52.056;8.510;2023-02-20T16:20:18;48.47;;;21.90;;
26277;SDS011;14000;52.056;8.510;2023-02-20T16:22:45;51.30;;;22.60;;
26277;SDS011;14000;52.056;8.510;2023-02-20T16:25:11;49.90;;;23.10;;
26277;SDS011;14000;52.056;8.510;2023-02-20T16:27:40;44.63;;;21.17;;
26277;SDS011;14000;52.056;8.510;2023-02-20T16:30:06;41.80;;;19.73;;
26277;SDS011;14000;52.056;8.510;2023-02-20T16:32:35;44.87;;;20.50;;
26277;SDS011;14000;52.056;8.510;2023-02-20T16:35:01;50.07;;;22.07;;
26277;SDS011;14000;52.056;8.510;2023-02-20T16:37:27;42.33;;;20.50;;
26277;SDS011;14000;52.056;8.510;2023-02-20T16:39:53;38.17;;;19.67;;
26277;SDS011;14000;52.056;8.510;2023-02-20T16:42:23;45.93;;;20.53;;
26277;SDS011;14000;52.056;8.510;2023-02-20T16:44:54;42.13;;;20.00;;
26277;SDS011;14000;52.056;8.510;2023-02-20T16:47:24;40.73;;;19.50;;
26277;SDS011;14000;52.056;8.510;2023-02-20T16:49:55;47.50;;;21.67;;
26277;SDS011;14000;52.056;8.510;2023-02-20T16:52:30;42.80;;;19.87;;